sensor_id;sensor_type;location;lat;lon;timestamp;pressure;altitude;pressure_sealevel;temperature;humidity
35151;BME280;55720;51.972;4.624;2023-02-16T00:00:46;101402.97;;;5.23;100.00
35151;BME280;55720;51.972;4.624;2023-02-16T00:03:15;101395.97;;;5.12;100.00
35151;BME280;55720;51.972;4.624;2023-02-16T00:05:41;101373.59;;;5.20;100.00
35151;BME280;55720;51.972;4.624;2023-02-16T00:11:11;101360.00;;;5.20;100.00
35151;BME280;55720;51.972;4.624;2023-02-16T00:13:56;101348.53;;;5.23;100.00
35151;BME280;55720;51.972;4.624;2023-02-16T00:16:29;101349.09;;;5.20;100.00
35151;BME280;55720;51.972;4.624;2023-02-16T00:18:55;101338.72;;;5.22;100.00
35151;BME280;55720;51.972;4.624;2023-02-16T00:21:20;101342.50;;;5.26;100.00
35151;BME280;55720;51.972;4.624;2023-02-16T00:23:46;101328.63;;;5.27;100.00
35151;BME280;55720;51.972;4.624;2023-02-16T00:26:21;101329.75;;;5.21;100.00
35151;BME280;55720;51.972;4.624;2023-02-16T00:28:52;101329.75;;;5.21;100.00
35151;BME280;55720;51.972;4.624;2023-02-16T00:31:23;101327.25;;;5.30;100.00
35151;BME280;55720;51.972;4.624;2023-02-16T00:33:51;101337.41;;;5.19;100.00
35151;BME280;55720;51.972;4.624;2023-02-16T00:36:17;101343.13;;;5.18;100.00
35151;BME280;55720;51.972;4.624;2023-02-16T00:38:43;101337.66;;;5.23;100.00
35151;BME280;55720;51.972;4.624;2023-02-16T00:41:17;101335.00;;;5.13;100.00
35151;BME280;55720;51.972;4.624;2023-02-16T00:44:02;101330.06;;;5.15;100.00
35151;BME280;55720;51.972;4.624;2023-02-16T00:46:27;101331.97;;;5.14;100.00
35151;BME280;55720;51.972;4.624;2023-02-16T00:48:53;101330.13;;;5.10;100.00
35151;BME280;55720;51.972;4.624;2023-02-16T00:51:18;101335.53;;;5.15;100.00
35151;BME280;55720;51.972;4.624;2023-02-16T00:53:44;101331.97;;;5.14;100.00
35151;BME280;55720;51.972;4.624;2023-02-16T00:56:10;101327.31;;;5.20;100.00
35151;BME280;55720;51.972;4.624;2023-02-16T00:58:37;101331.44;;;5.17;100.00
35151;BME280;55720;51.972;4.624;2023-02-16T01:01:28;101338.50;;;5.18;100.00
35151;BME280;55720;51.972;4.624;2023-02-16T01:03:54;101342.59;;;5.16;100.00
35151;BME280;55720;51.972;4.624;2023-02-16T01:06:19;101343.69;;;5.15;100.00
35151;BME280;55720;51.972;4.624;2023-02-16T01:09:19;101338.22;;;5.20;100.00
35151;BME280;55720;51.972;4.624;2023-02-16T01:12:09;101346.13;;;5.16;100.00
35151;BME280;55720;51.972;4.624;2023-02-16T01:14:37;101351.25;;;5.23;100.00
35151;BME280;55720;51.972;4.624;2023-02-16T01:17:02;101365.94;;;5.22;100.00
35151;BME280;55720;51.972;4.624;2023-02-16T01:19:28;101357.94;;;5.35;100.00
35151;BME280;55720;51.972;4.624;2023-02-16T01:21:53;101360.91;;;5.39;100.00
35151;BME280;55720;51.972;4.624;2023-02-16T01:24:18;101372.84;;;5.43;100.00
35151;BME280;55720;51.972;4.624;2023-02-16T01:26:46;101393.81;;;5.47;100.00
35151;BME280;55720;51.972;4.624;2023-02-16T01:29:16;101400.28;;;5.57;100.00
35151;BME280;55720;51.972;4.624;2023-02-16T01:31:43;101415.81;;;5.56;100.00
35151;BME280;55720;51.972;4.624;2023-02-16T01:34:08;101432.31;;;5.70;100.00
35151;BME280;55720;51.972;4.624;2023-02-16T01:36:39;101464.47;;;5.68;100.00
35151;BME280;55720;51.972;4.624;2023-02-16T01:39:06;101479.44;;;5.70;100.00
35151;BME280;55720;51.972;4.624;2023-02-16T01:49:54;101558.72;;;5.69;100.00
35151;BME280;55720;51.972;4.624;2023-02-16T01:52:37;101573.97;;;5.70;100.00
35151;BME280;55720;51.972;4.624;2023-02-16T01:55:17;101599.06;;;5.67;100.00
35151;BME280;55720;51.972;4.624;2023-02-16T01:58:00;101622.44;;;5.73;100.00
35151;BME280;55720;51.972;4.624;2023-02-16T02:03:25;101658.38;;;5.80;100.00
35151;BME280;55720;51.972;4.624;2023-02-16T02:06:14;101674.72;;;5.80;100.00
35151;BME280;55720;51.972;4.624;2023-02-16T02:08:49;101695.72;;;5.79;100.00
35151;BME280;55720;51.972;4.624;2023-02-16T02:14:24;101726.50;;;5.80;100.00
35151;BME280;55720;51.972;4.624;2023-02-16T02:17:05;101738.50;;;5.79;100.00
35151;BME280;55720;51.972;4.624;2023-02-16T02:28:28;101788.38;;;5.79;100.00
35151;BME280;55720;51.972;4.624;2023-02-16T02:34:12;101815.09;;;5.92;100.00
35151;BME280;55720;51.972;4.624;2023-02-16T02:36:50;101835.78;;;5.93;100.00
35151;BME280;55720;51.972;4.624;2023-02-16T02:39:36;101846.16;;;5.97;100.00
35151;BME280;55720;51.972;4.624;2023-02-16T02:42:12;101859.75;;;6.02;100.00
35151;BME280;55720;51.972;4.624;2023-02-16T02:44:48;101871.22;;;5.99;100.00
35151;BME280;55720;51.972;4.624;2023-02-16T02:47:15;101881.56;;;6.02;100.00
35151;BME280;55720;51.972;4.624;2023-02-16T02:49:48;101900.34;;;6.08;100.00
35151;BME280;55720;51.972;4.624;2023-02-16T02:52:13;101907.19;;;6.11;100.00
35151;BME280;55720;51.972;4.624;2023-02-16T02:54:39;101921.88;;;6.20;100.00
35151;BME280;55720;51.972;4.624;2023-02-16T02:57:43;101936.84;;;6.27;100.00
35151;BME280;55720;51.972;4.624;2023-02-16T03:00:49;101955.41;;;6.25;100.00
35151;BME280;55720;51.972;4.624;2023-02-16T03:03:31;101962.78;;;6.25;100.00
35151;BME280;55720;51.972;4.624;2023-02-16T03:06:02;101966.31;;;6.25;100.00
35151;BME280;55720;51.972;4.624;2023-02-16T03:08:31;101985.13;;;6.27;100.00
35151;BME280;55720;51.972;4.624;2023-02-16T03:11:05;101988.66;;;6.27;100.00
35151;BME280;55720;51.972;4.624;2023-02-16T03:14:19;101995.22;;;6.31;100.00
35151;BME280;55720;51.972;4.624;2023-02-16T03:16:48;102003.38;;;6.31;100.00
35151;BME280;55720;51.972;4.624;2023-02-16T03:19:35;102004.47;;;6.30;100.00
35151;BME280;55720;51.972;4.624;2023-02-16T03:22:21;102013.22;;;6.27;100.00
35151;BME280;55720;51.972;4.624;2023-02-16T03:25:06;102035.28;;;6.26;100.00
35151;BME280;55720;51.972;4.624;2023-02-16T03:27:51;102023.88;;;6.29;100.00
35151;BME280;55720;51.972;4.624;2023-02-16T03:30:40;102031.22;;;6.28;100.00
35151;BME280;55720;51.972;4.624;2023-02-16T03:33:06;102033.13;;;6.28;100.00
35151;BME280;55720;51.972;4.624;2023-02-16T03:35:32;102034.47;;;6.30;100.00
35151;BME280;55720;51.972;4.624;2023-02-16T03:37:59;102021.66;;;6.36;100.00
35151;BME280;55720;51.972;4.624;2023-02-16T03:40:25;102023.56;;;6.35;100.00
35151;BME280;55720;51.972;4.624;2023-02-16T03:42:55;102024.09;;;6.37;100.00
35151;BME280;55720;51.972;4.624;2023-02-16T03:45:21;102025.47;;;6.35;100.00
35151;BME280;55720;51.972;4.624;2023-02-16T03:47:47;102028.47;;;6.33;100.00
35151;BME280;55720;51.972;4.624;2023-02-16T03:50:13;102025.75;;;6.33;100.00
35151;BME280;55720;51.972;4.624;2023-02-16T03:52:38;102023.84;;;6.34;100.00
35151;BME280;55720;51.972;4.624;2023-02-16T03:55:04;102020.84;;;6.35;100.00
35151;BME280;55720;51.972;4.624;2023-02-16T03:57:29;102020.03;;;6.35;100.00
35151;BME280;55720;51.972;4.624;2023-02-16T03:59:55;102015.91;;;6.37;100.00
35151;BME280;55720;51.972;4.624;2023-02-16T04:02:21;102013.19;;;6.37;100.00
35151;BME280;55720;51.972;4.624;2023-02-16T04:04:47;102015.38;;;6.35;100.00
35151;BME280;55720;51.972;4.624;2023-02-16T04:07:12;102012.38;;;6.37;100.00
35151;BME280;55720;51.972;4.624;2023-02-16T04:09:38;102005.56;;;6.34;100.00
35151;BME280;55720;51.972;4.624;2023-02-16T04:12:03;102011.56;;;6.31;100.00
35151;BME280;55720;51.972;4.624;2023-02-16T04:14:47;102012.66;;;6.30;100.00
35151;BME280;55720;51.972;4.624;2023-02-16T04:17:13;102020.84;;;6.30;100.00
35151;BME280;55720;51.972;4.624;2023-02-16T04:19:38;102013.75;;;6.29;100.00
35151;BME280;55720;51.972;4.624;2023-02-16T04:22:03;102021.41;;;6.27;100.00
35151;BME280;55720;51.972;4.624;2023-02-16T04:24:29;102011.88;;;6.25;100.00
35151;BME280;55720;51.972;4.624;2023-02-16T04:26:54;102008.31;;;6.24;100.00
35151;BME280;55720;51.972;4.624;2023-02-16T04:29:19;102003.69;;;6.25;100.00
35151;BME280;55720;51.972;4.624;2023-02-16T04:31:45;101994.38;;;6.26;100.00
35151;BME280;55720;51.972;4.624;2023-02-16T04:34:10;101989.50;;;6.23;100.00
35151;BME280;55720;51.972;4.624;2023-02-16T04:36:36;101984.03;;;6.23;100.00
35151;BME280;55720;51.972;4.624;2023-02-16T04:39:01;101978.31;;;6.19;100.00
35151;BME280;55720;51.972;4.624;2023-02-16T04:41:26;101976.41;;;6.20;100.00
35151;BME280;55720;51.972;4.624;2023-02-16T04:43:52;101973.69;;;6.20;100.00
35151;BME280;55720;51.972;4.624;2023-02-16T04:46:17;101964.69;;;6.19;100.00
35151;BME280;55720;51.972;4.624;2023-02-16T04:48:44;101953.50;;;6.21;100.00
35151;BME280;55720;51.972;4.624;2023-02-16T04:51:09;101957.31;;;6.20;100.00
35151;BME280;55720;51.972;4.624;2023-02-16T04:53:35;101952.41;;;6.17;100.00
35151;BME280;55720;51.972;4.624;2023-02-16T04:56:01;101953.50;;;6.21;100.00
35151;BME280;55720;51.972;4.624;2023-02-16T04:58:26;101947.22;;;6.20;100.00
35151;BME280;55720;51.972;4.624;2023-02-16T05:00:51;101943.16;;;6.18;100.00
35151;BME280;55720;51.972;4.624;2023-02-16T05:03:17;101946.16;;;6.16;100.00
35151;BME280;55720;51.972;4.624;2023-02-16T05:05:42;101944.25;;;6.17;100.00
35151;BME280;55720;51.972;4.624;2023-02-16T05:08:08;101931.69;;;6.16;100.00
35151;BME280;55720;51.972;4.624;2023-02-16T05:10:33;101927.09;;;6.11;100.00
35151;BME280;55720;51.972;4.624;2023-02-16T05:12:59;101929.81;;;6.11;100.00
35151;BME280;55720;51.972;4.624;2023-02-16T05:15:43;101923.53;;;6.11;100.00
35151;BME280;55720;51.972;4.624;2023-02-16T05:18:09;101921.34;;;6.13;100.00
35151;BME280;55720;51.972;4.624;2023-02-16T05:20:34;101908.78;;;6.12;100.00
35151;BME280;55720;51.972;4.624;2023-02-16T05:23:18;101897.09;;;6.11;100.00
35151;BME280;55720;51.972;4.624;2023-02-16T05:25:43;101896.53;;;6.09;100.00
35151;BME280;55720;51.972;4.624;2023-02-16T05:28:09;101894.91;;;6.08;100.00
35151;BME280;55720;51.972;4.624;2023-02-16T05:30:34;101892.16;;;6.08;100.00
35151;BME280;55720;51.972;4.624;2023-02-16T05:33:00;101882.09;;;6.09;100.00
35151;BME280;55720;51.972;4.624;2023-02-16T05:35:25;101883.19;;;6.08;100.00
35151;BME280;55720;51.972;4.624;2023-02-16T05:37:50;101881.53;;;6.12;100.00
35151;BME280;55720;51.972;4.624;2023-02-16T05:40:16;101882.34;;;6.12;100.00
35151;BME280;55720;51.972;4.624;2023-02-16T05:42:42;101879.63;;;6.17;100.00
35151;BME280;55720;51.972;4.624;2023-02-16T05:45:08;101885.31;;;6.21;100.00
35151;BME280;55720;51.972;4.624;2023-02-16T05:47:34;101885.31;;;6.21;100.00
35151;BME280;55720;51.972;4.624;2023-02-16T05:49:59;101886.13;;;6.26;100.00
35151;BME280;55720;51.972;4.624;2023-02-16T05:52:24;101888.28;;;6.29;100.00
35151;BME280;55720;51.972;4.624;2023-02-16T05:54:50;101889.91;;;6.35;100.00
35151;BME280;55720;51.972;4.624;2023-02-16T05:57:15;101910.09;;;6.39;100.00
35151;BME280;55720;51.972;4.624;2023-02-16T05:59:40;101905.97;;;6.42;100.00
35151;BME280;55720;51.972;4.624;2023-02-16T06:02:06;101900.53;;;6.42;100.00
35151;BME280;55720;51.972;4.624;2023-02-16T06:04:34;101906.81;;;6.42;100.00
35151;BME280;55720;51.972;4.624;2023-02-16T06:06:59;101913.91;;;6.43;100.00
35151;BME280;55720;51.972;4.624;2023-02-16T06:09:25;101923.44;;;6.46;100.00
35151;BME280;55720;51.972;4.624;2023-02-16T06:11:50;101925.84;;;6.48;100.00
35151;BME280;55720;51.972;4.624;2023-02-16T06:14:18;101921.47;;;6.52;100.00
35151;BME280;55720;51.972;4.624;2023-02-16T06:16:46;101920.41;;;6.53;100.00
35151;BME280;55720;51.972;4.624;2023-02-16T06:19:13;101917.97;;;6.46;100.00
35151;BME280;55720;51.972;4.624;2023-02-16T06:21:39;101924.25;;;6.41;100.00
35151;BME280;55720;51.972;4.624;2023-02-16T06:24:07;101926.16;;;6.41;100.00
35151;BME280;55720;51.972;4.624;2023-02-16T06:26:33;101930.53;;;6.47;100.00
35151;BME280;55720;51.972;4.624;2023-02-16T06:28:59;101924.22;;;6.52;100.00
35151;BME280;55720;51.972;4.624;2023-02-16T06:31:25;101926.41;;;6.55;100.00
35151;BME280;55720;51.972;4.624;2023-02-16T06:33:51;101931.31;;;6.58;100.00
35151;BME280;55720;51.972;4.624;2023-02-16T06:36:17;101932.13;;;6.58;100.00
35151;BME280;55720;51.972;4.624;2023-02-16T06:38:42;101941.34;;;6.62;100.00
35151;BME280;55720;51.972;4.624;2023-02-16T06:41:09;101938.94;;;6.61;100.00
35151;BME280;55720;51.972;4.624;2023-02-16T06:43:34;101939.44;;;6.63;100.00
35151;BME280;55720;51.972;4.624;2023-02-16T06:46:00;101930.19;;;6.64;100.00
35151;BME280;55720;51.972;4.624;2023-02-16T06:48:25;101943.81;;;6.64;100.00
35151;BME280;55720;51.972;4.624;2023-02-16T06:50:51;101941.34;;;6.62;100.00
35151;BME280;55720;51.972;4.624;2023-02-16T06:53:16;101948.19;;;6.65;100.00
35151;BME280;55720;51.972;4.624;2023-02-16T06:55:42;101946.25;;;6.70;100.00
35151;BME280;55720;51.972;4.624;2023-02-16T06:58:08;101953.59;;;6.70;100.00
35151;BME280;55720;51.972;4.624;2023-02-16T07:00:34;101964.25;;;6.71;100.00
35151;BME280;55720;51.972;4.624;2023-02-16T07:03:05;101965.34;;;6.75;100.00
35151;BME280;55720;51.972;4.624;2023-02-16T07:05:30;101972.44;;;6.76;100.00
35151;BME280;55720;51.972;4.624;2023-02-16T07:07:56;101976.53;;;6.74;100.00
35151;BME280;55720;51.972;4.624;2023-02-16T07:10:21;101979.00;;;6.75;100.00
35151;BME280;55720;51.972;4.624;2023-02-16T07:12:47;101988.53;;;6.78;100.00
35151;BME280;55720;51.972;4.624;2023-02-16T07:15:13;101989.06;;;6.80;100.00
35151;BME280;55720;51.972;4.624;2023-02-16T07:17:39;101992.59;;;6.80;100.00
35151;BME280;55720;51.972;4.624;2023-02-16T07:20:05;101989.34;;;6.83;100.00
35151;BME280;55720;51.972;4.624;2023-02-16T07:22:31;101993.72;;;6.79;100.00
35151;BME280;55720;51.972;4.624;2023-02-16T07:24:57;101994.53;;;6.80;100.00
35151;BME280;55720;51.972;4.624;2023-02-16T07:27:24;102005.47;;;6.80;100.00
35151;BME280;55720;51.972;4.624;2023-02-16T07:29:50;101995.06;;;6.77;100.00
35151;BME280;55720;51.972;4.624;2023-02-16T07:32:15;102001.03;;;6.84;100.00
35151;BME280;55720;51.972;4.624;2023-02-16T07:34:41;102012.53;;;6.81;100.00
35151;BME280;55720;51.972;4.624;2023-02-16T07:37:06;102010.63;;;6.81;100.00
35151;BME280;55720;51.972;4.624;2023-02-16T07:39:31;102020.19;;;6.79;100.00
35151;BME280;55720;51.972;4.624;2023-02-16T07:41:58;102019.63;;;6.82;100.00
35151;BME280;55720;51.972;4.624;2023-02-16T07:44:23;102020.97;;;6.89;100.00
35151;BME280;55720;51.972;4.624;2023-02-16T07:46:49;102027.50;;;6.88;100.00
35151;BME280;55720;51.972;4.624;2023-02-16T07:49:14;102039.53;;;6.87;100.00
35151;BME280;55720;51.972;4.624;2023-02-16T07:51:39;102036.00;;;6.87;100.00
35151;BME280;55720;51.972;4.624;2023-02-16T07:54:05;102048.84;;;6.86;100.00
35151;BME280;55720;51.972;4.624;2023-02-16T07:56:32;102050.44;;;6.92;100.00
35151;BME280;55720;51.972;4.624;2023-02-16T07:59:00;102045.81;;;6.88;100.00
35151;BME280;55720;51.972;4.624;2023-02-16T08:01:27;102050.75;;;6.86;100.00
35151;BME280;55720;51.972;4.624;2023-02-16T08:03:54;102048.84;;;6.86;100.00
35151;BME280;55720;51.972;4.624;2023-02-16T08:06:19;102046.06;;;6.91;100.00
35151;BME280;55720;51.972;4.624;2023-02-16T08:08:45;102048.53;;;6.88;100.00
35151;BME280;55720;51.972;4.624;2023-02-16T08:11:19;102046.34;;;6.90;100.00
35151;BME280;55720;51.972;4.624;2023-02-16T08:13:45;102046.88;;;6.92;100.00
35151;BME280;55720;51.972;4.624;2023-02-16T08:16:14;102044.16;;;6.92;100.00
35151;BME280;55720;51.972;4.624;2023-02-16T08:18:40;102023.69;;;6.84;100.00
35151;BME280;55720;51.972;4.624;2023-02-16T08:21:10;101992.63;;;6.75;100.00
35151;BME280;55720;51.972;4.624;2023-02-16T08:23:41;101978.19;;;6.70;100.00
35151;BME280;55720;51.972;4.624;2023-02-16T08:26:09;101941.91;;;6.64;100.00
35151;BME280;55720;51.972;4.624;2023-02-16T08:28:35;101920.91;;;6.60;100.00
35151;BME280;55720;51.972;4.624;2023-02-16T08:31:03;101878.06;;;6.60;100.00
35151;BME280;55720;51.972;4.624;2023-02-16T08:33:29;101845.91;;;6.57;100.00
35151;BME280;55720;51.972;4.624;2023-02-16T08:35:54;101814.00;;;6.53;100.00
35151;BME280;55720;51.972;4.624;2023-02-16T08:38:19;101776.94;;;6.47;100.00
35151;BME280;55720;51.972;4.624;2023-02-16T08:40:49;101718.00;;;6.46;100.00
35151;BME280;55720;51.972;4.624;2023-02-16T08:43:14;101677.66;;;6.42;100.00
35151;BME280;55720;51.972;4.624;2023-02-16T08:45:45;101622.53;;;6.46;100.00
35151;BME280;55720;51.972;4.624;2023-02-16T08:48:11;101572.38;;;6.41;100.00
35151;BME280;55720;51.972;4.624;2023-02-16T08:50:37;101516.19;;;6.40;100.00
35151;BME280;55720;51.972;4.624;2023-02-16T08:53:14;101474.75;;;6.38;100.00
35151;BME280;55720;51.972;4.624;2023-02-16T08:55:40;101418.56;;;6.37;100.00
35151;BME280;55720;51.972;4.624;2023-02-16T08:58:05;101354.69;;;6.43;100.00
35151;BME280;55720;51.972;4.624;2023-02-16T09:00:30;101296.50;;;6.48;100.00
35151;BME280;55720;51.972;4.624;2023-02-16T09:02:58;101242.09;;;6.57;100.00
35151;BME280;55720;51.972;4.624;2023-02-16T09:05:25;101180.81;;;6.68;100.00
35151;BME280;55720;51.972;4.624;2023-02-16T09:07:50;101110.97;;;6.67;100.00
35151;BME280;55720;51.972;4.624;2023-02-16T09:10:16;101069.06;;;6.76;100.00
35151;BME280;55720;51.972;4.624;2023-02-16T09:12:43;101035.19;;;6.77;100.00
35151;BME280;55720;51.972;4.624;2023-02-16T09:15:12;101006.69;;;6.97;100.00
35151;BME280;55720;51.972;4.624;2023-02-16T09:17:39;100988.69;;;6.96;100.00
35151;BME280;55720;51.972;4.624;2023-02-16T09:20:05;100967.25;;;7.03;100.00
35151;BME280;55720;51.972;4.624;2023-02-16T09:22:30;100957.34;;;7.07;100.00
35151;BME280;55720;51.972;4.624;2023-02-16T09:24:57;100952.78;;;7.03;100.00
35151;BME280;55720;51.972;4.624;2023-02-16T09:27:22;100948.47;;;7.02;100.00
35151;BME280;55720;51.972;4.624;2023-02-16T09:29:47;100938.13;;;7.12;100.00
35151;BME280;55720;51.972;4.624;2023-02-16T09:32:14;100923.63;;;7.25;100.00
35151;BME280;55720;51.972;4.624;2023-02-16T09:34:39;100919.13;;;7.43;100.00
35151;BME280;55720;51.972;4.624;2023-02-16T09:37:06;100928.50;;;7.51;100.00
35151;BME280;55720;51.972;4.624;2023-02-16T09:39:31;100925.50;;;7.61;100.00
35151;BME280;55720;51.972;4.624;2023-02-16T09:47:18;100947.56;;;7.86;100.00
35151;BME280;55720;51.972;4.624;2023-02-16T09:49:44;100951.59;;;7.89;100.00
35151;BME280;55720;51.972;4.624;2023-02-16T09:52:33;100954.84;;;8.22;100.00
35151;BME280;55720;51.972;4.624;2023-02-16T09:55:04;100977.31;;;8.32;100.00
35151;BME280;55720;51.972;4.624;2023-02-16T10:00:23;101020.66;;;8.39;100.00
35151;BME280;55720;51.972;4.624;2023-02-16T10:06:06;101063.09;;;8.59;100.00
35151;BME280;55720;51.972;4.624;2023-02-16T10:08:43;101110.53;;;8.32;100.00
35151;BME280;55720;51.972;4.624;2023-02-16T10:11:19;101117.75;;;8.50;100.00
35151;BME280;55720;51.972;4.624;2023-02-16T10:16:45;101138.47;;;8.65;100.00
35151;BME280;55720;51.972;4.624;2023-02-16T10:19:22;101157.63;;;8.65;100.00
35151;BME280;55720;51.972;4.624;2023-02-16T10:21:54;101171.31;;;8.65;100.00
35151;BME280;55720;51.972;4.624;2023-02-16T10:24:20;101191.66;;;8.50;100.00
35151;BME280;55720;51.972;4.624;2023-02-16T10:27:06;101201.00;;;8.49;100.00
35151;BME280;55720;51.972;4.624;2023-02-16T10:29:36;101225.53;;;8.40;100.00
35151;BME280;55720;51.972;4.624;2023-02-16T10:32:21;101231.53;;;8.65;100.00
35151;BME280;55720;51.972;4.624;2023-02-16T10:37:50;101247.75;;;8.75;100.00
35151;BME280;55720;51.972;4.624;2023-02-16T10:42:59;101281.78;;;9.05;100.00
35151;BME280;55720;51.972;4.624;2023-02-16T10:45:36;101297.28;;;9.09;100.00
35151;BME280;55720;51.972;4.624;2023-02-16T10:48:05;101328.00;;;8.84;100.00
35151;BME280;55720;51.972;4.624;2023-02-16T10:50:40;101345.63;;;8.56;100.00
35151;BME280;55720;51.972;4.624;2023-02-16T10:53:23;101321.81;;;8.92;100.00
35151;BME280;55720;51.972;4.624;2023-02-16T10:55:55;101332.19;;;8.81;100.00
35151;BME280;55720;51.972;4.624;2023-02-16T10:58:30;101325.78;;;9.30;100.00
35151;BME280;55720;51.972;4.624;2023-02-16T11:01:06;101347.84;;;9.25;100.00
35151;BME280;55720;51.972;4.624;2023-02-16T11:03:37;101374.69;;;9.15;100.00
35151;BME280;55720;51.972;4.624;2023-02-16T11:06:16;101371.28;;;9.54;100.00
35151;BME280;55720;51.972;4.624;2023-02-16T11:08:49;101404.97;;;9.54;100.00
35151;BME280;55720;51.972;4.624;2023-02-16T11:11:16;101421.44;;;9.54;100.00
35151;BME280;55720;51.972;4.624;2023-02-16T11:13:46;101399.00;;;10.36;100.00
35151;BME280;55720;51.972;4.624;2023-02-16T11:16:19;101457.31;;;10.42;100.00
35151;BME280;55720;51.972;4.624;2023-02-16T11:18:48;101510.44;;;10.46;100.00
35151;BME280;55720;51.972;4.624;2023-02-16T11:21:20;101585.53;;;10.41;100.00
35151;BME280;55720;51.972;4.624;2023-02-16T11:23:57;101633.94;;;10.01;100.00
35151;BME280;55720;51.972;4.624;2023-02-16T11:26:25;101629.81;;;10.70;100.00
35151;BME280;55720;51.972;4.624;2023-02-16T11:28:51;101680.75;;;10.54;100.00
35151;BME280;55720;51.972;4.624;2023-02-16T11:31:31;101719.59;;;10.12;100.00
35151;BME280;55720;51.972;4.624;2023-02-16T11:41:54;101782.38;;;10.41;100.00
35151;BME280;55720;51.972;4.624;2023-02-16T11:44:36;101798.00;;;10.54;100.00
35151;BME280;55720;51.972;4.624;2023-02-16T11:47:08;101805.72;;;10.65;100.00
35151;BME280;55720;51.972;4.624;2023-02-16T11:49:45;101825.84;;;10.61;100.00
35151;BME280;55720;51.972;4.624;2023-02-16T11:54:53;101833.88;;;10.71;100.00
35151;BME280;55720;51.972;4.624;2023-02-16T11:57:38;101856.16;;;10.69;100.00
35151;BME280;55720;51.972;4.624;2023-02-16T12:00:14;101848.59;;;10.89;100.00
35151;BME280;55720;51.972;4.624;2023-02-16T12:05:53;101888.31;;;10.69;100.00
35151;BME280;55720;51.972;4.624;2023-02-16T12:11:27;101922.59;;;10.85;100.00
35151;BME280;55720;51.972;4.624;2023-02-16T12:16:40;101953.91;;;11.92;100.00
35151;BME280;55720;51.972;4.624;2023-02-16T12:21:48;102020.94;;;12.88;100.00
35151;BME280;55720;51.972;4.624;2023-02-16T12:24:23;102047.53;;;13.23;100.00
35151;BME280;55720;51.972;4.624;2023-02-16T12:26:55;102095.81;;;12.81;100.00
35151;BME280;55720;51.972;4.624;2023-02-16T12:32:28;102123.75;;;12.36;100.00
35151;BME280;55720;51.972;4.624;2023-02-16T12:41:21;102162.97;;;11.69;100.00
35151;BME280;55720;51.972;4.624;2023-02-16T12:45:54;102157.94;;;11.99;100.00
35151;BME280;55720;51.972;4.624;2023-02-16T12:48:38;102161.59;;;12.08;100.00
35151;BME280;55720;51.972;4.624;2023-02-16T12:51:09;102164.47;;;12.03;100.00
35151;BME280;55720;51.972;4.624;2023-02-16T12:53:45;102169.88;;;12.30;100.00
35151;BME280;55720;51.972;4.624;2023-02-16T12:56:18;102177.53;;;12.33;100.00
35151;BME280;55720;51.972;4.624;2023-02-16T12:58:47;102178.09;;;12.66;100.00
35151;BME280;55720;51.972;4.624;2023-02-16T13:01:24;102182.44;;;12.89;100.00
35151;BME280;55720;51.972;4.624;2023-02-16T13:04:05;102192.16;;;13.09;100.00
35151;BME280;55720;51.972;4.624;2023-02-16T13:12:14;102197.75;;;12.51;100.00
35151;BME280;55720;51.972;4.624;2023-02-16T13:14:44;102190.38;;;12.60;100.00
35151;BME280;55720;51.972;4.624;2023-02-16T13:17:18;102192.69;;;12.44;100.00
35151;BME280;55720;51.972;4.624;2023-02-16T13:19:45;102192.06;;;12.47;100.00
35151;BME280;55720;51.972;4.624;2023-02-16T13:22:18;102201.94;;;12.12;100.00
35151;BME280;55720;51.972;4.624;2023-02-16T13:28:00;102194.84;;;12.11;100.00
35151;BME280;55720;51.972;4.624;2023-02-16T13:30:47;102189.91;;;12.22;100.00
35151;BME280;55720;51.972;4.624;2023-02-16T13:47:13;102166.53;;;11.70;100.00
35151;BME280;55720;51.972;4.624;2023-02-16T13:49:41;102166.34;;;11.66;100.00
35151;BME280;55720;51.972;4.624;2023-02-16T13:52:09;102166.81;;;11.68;100.00
35151;BME280;55720;51.972;4.624;2023-02-16T13:54:39;102156.06;;;11.45;100.00
35151;BME280;55720;51.972;4.624;2023-02-16T13:57:10;102144.41;;;11.61;100.00
35151;BME280;55720;51.972;4.624;2023-02-16T14:02:09;102137.81;;;11.49;100.00
35151;BME280;55720;51.972;4.624;2023-02-16T14:12:12;102111.63;;;11.51;100.00
35151;BME280;55720;51.972;4.624;2023-02-16T14:17:15;102092.00;;;11.30;100.00
35151;BME280;55720;51.972;4.624;2023-02-16T14:22:28;102084.34;;;11.41;100.00
35151;BME280;55720;51.972;4.624;2023-02-16T14:24:59;102086.53;;;11.17;100.00
35151;BME280;55720;51.972;4.624;2023-02-16T14:30:24;102044.16;;;11.18;100.00
35151;BME280;55720;51.972;4.624;2023-02-16T14:35:33;102012.84;;;10.92;100.00
35151;BME280;55720;51.972;4.624;2023-02-16T14:41:01;101984.75;;;10.81;100.00
35151;BME280;55720;51.972;4.624;2023-02-16T14:59:15;101715.63;;;10.04;100.00
35151;BME280;55720;51.972;4.624;2023-02-16T15:01:44;101649.47;;;10.06;100.00
35151;BME280;55720;51.972;4.624;2023-02-16T15:04:10;101573.41;;;9.98;100.00
35151;BME280;55720;51.972;4.624;2023-02-16T15:06:45;101500.75;;;9.95;100.00
35151;BME280;55720;51.972;4.624;2023-02-16T15:09:32;101434.53;;;9.88;100.00
35151;BME280;55720;51.972;4.624;2023-02-16T15:12:04;101391.28;;;9.85;100.00
35151;BME280;55720;51.972;4.624;2023-02-16T15:17:30;101309.69;;;9.91;100.00
35151;BME280;55720;51.972;4.624;2023-02-16T15:20:21;101291.25;;;9.82;100.00
35151;BME280;55720;51.972;4.624;2023-02-16T15:22:53;101263.31;;;9.80;100.00
35151;BME280;55720;51.972;4.624;2023-02-16T15:32:53;101212.34;;;9.71;100.00
35151;BME280;55720;51.972;4.624;2023-02-16T15:35:34;101201.69;;;9.69;100.00
35151;BME280;55720;51.972;4.624;2023-02-16T15:38:05;101215.75;;;9.76;100.00